Terminal Aerodrome Forecast
Issued by NWS

Home | Current Version | Previous Version | Text Only | Print | Product List | Glossary On
Versions: 1 2 3 4 5 6 7 8 9 10 11 12 13 14 15 16 17 18
849
FTUS44 KLIX 240808 AAA
TAFMSY
TAF AMD
KMSY 240808Z 2408/2506 13011KT P6SM SCT015 BKN025
     FM241700 15016KT P6SM BKN045
     FM250000 15013KT P6SM OVC020
     FM250200 15013KT P6SM OVC015=

USA.gov is the U.S. government's official web portal to all federal, state and local government web resources and services.